Time;durP1;ratioP1;P1;durP2;ratioP2;P2;SDS_P1;SDS_P2;PMS_P1;PMS_P2;Temp;Humidity;BMP_temperature;BMP_pressure;BME280_temperature;BME280_humidity;BME280_pressure;Samples;Min_cycle;Max_cycle;Signal;HPM_P1;HPM_P2
2023/02/21 02:15:01;;;;;;;1.83;0.90;;;;;;;;;;6161666;23;20390;-80
2023/02/21 02:17:39;;;;;;;1.88;0.90;;;;;;;;;;6125868;23;20394;-80
2023/02/21 02:20:39;;;;;;;1.67;0.90;;;;;;;;;;6149476;23;20786;-80
2023/02/21 02:23:29;;;;;;;1.38;0.80;;;;;;;;;;6119205;23;20397;-81
2023/02/21 02:26:20;;;;;;;1.02;0.80;;;;;;;;;;6149320;23;20394;-81
2023/02/21 02:28:59;;;;;;;2.60;0.90;;;;;;;;;;6125192;23;20394;-80
2023/02/21 02:31:48;;;;;;;1.00;0.73;;;;;;;;;;6124514;23;20382;-80
2023/02/21 02:34:34;;;;;;;0.75;0.70;;;;;;;;;;6122992;23;20391;-81
2023/02/21 02:37:12;;;;;;;1.55;0.80;;;;;;;;;;6125200;23;20857;-80
2023/02/21 02:39:48;;;;;;;1.55;0.80;;;;;;;;;;6149569;23;20387;-80
2023/02/21 02:42:25;;;;;;;1.27;0.77;;;;;;;;;;6149946;23;20375;-80
2023/02/21 02:45:01;;;;;;;0.82;0.70;;;;;;;;;;6161936;23;20821;-81
2023/02/21 02:47:36;;;;;;;2.03;0.80;;;;;;;;;;6161442;23;20382;-80
2023/02/21 02:50:13;;;;;;;1.85;0.85;;;;;;;;;;6149914;23;20431;-81
2023/02/21 02:52:50;;;;;;;1.88;1.00;;;;;;;;;;6161535;23;20385;-80
2023/02/21 02:55:34;;;;;;;1.60;0.80;;;;;;;;;;6124817;23;20387;-81
2023/02/21 02:58:09;;;;;;;1.23;0.70;;;;;;;;;;6161757;23;20839;-80
2023/02/21 03:00:44;;;;;;;1.15;0.63;;;;;;;;;;6124937;23;20697;-80
2023/02/21 03:03:23;;;;;;;1.40;0.70;;;;;;;;;;6124577;23;20970;-81
2023/02/21 03:06:03;;;;;;;1.40;0.68;;;;;;;;;;6125068;23;20705;-80
2023/02/21 03:08:36;;;;;;;1.58;0.70;;;;;;;;;;6126030;23;20363;-81
2023/02/21 03:11:13;;;;;;;1.35;0.70;;;;;;;;;;6152192;23;20383;-80
2023/02/21 03:13:48;;;;;;;2.30;0.90;;;;;;;;;;6124944;23;20387;-80
2023/02/21 03:16:24;;;;;;;3.85;1.00;;;;;;;;;;6149122;23;20707;-80
2023/02/21 03:18:58;;;;;;;1.85;0.98;;;;;;;;;;6125137;23;20391;-81
2023/02/21 03:21:29;;;;;;;4.00;0.80;;;;;;;;;;6125503;23;20378;-80
2023/02/21 03:23:58;;;;;;;1.73;0.90;;;;;;;;;;6124548;23;21177;-80
2023/02/21 03:26:33;;;;;;;1.23;0.80;;;;;;;;;;6149226;23;21036;-80
2023/02/21 03:29:24;;;;;;;2.42;0.93;;;;;;;;;;6124711;23;20387;-81
2023/02/21 03:34:42;;;;;;;4.63;1.20;;;;;;;;;;6161452;23;20398;-80
2023/02/21 03:37:19;;;;;;;6.80;1.10;;;;;;;;;;6124315;23;20397;-81
2023/02/21 03:39:52;;;;;;;5.28;1.30;;;;;;;;;;6161859;23;20379;-81
2023/02/21 03:42:20;;;;;;;4.60;1.40;;;;;;;;;;6124649;23;20383;-81
2023/02/21 03:44:53;;;;;;;8.63;1.63;;;;;;;;;;6125391;23;20378;-81
2023/02/21 03:47:27;;;;;;;6.90;1.20;;;;;;;;;;6161202;23;20366;-80
2023/02/21 03:49:55;;;;;;;8.23;1.48;;;;;;;;;;6152013;23;20374;-80
2023/02/21 03:52:29;;;;;;;5.20;1.20;;;;;;;;;;6125030;23;20911;-80
2023/02/21 03:55:02;;;;;;;5.85;1.40;;;;;;;;;;6161763;23;20383;-80
2023/02/21 03:57:30;;;;;;;5.80;1.50;;;;;;;;;;6124079;23;20386;-81
2023/02/21 03:59:58;;;;;;;4.90;1.57;;;;;;;;;;6125477;23;20390;-80
2023/02/21 04:02:32;;;;;;;4.10;1.20;;;;;;;;;;6161295;23;20397;-82
2023/02/21 04:05:00;;;;;;;2.53;1.13;;;;;;;;;;6125286;23;20379;-81
2023/02/21 04:07:34;;;;;;;5.13;1.40;;;;;;;;;;6161105;23;20383;-80
2023/02/21 04:10:02;;;;;;;4.40;1.20;;;;;;;;;;6148916;23;20387;-81
2023/02/21 04:12:40;;;;;;;4.35;1.27;;;;;;;;;;6123030;23;20821;-80
2023/02/21 04:15:13;;;;;;;4.68;1.30;;;;;;;;;;6124546;23;20422;-80
2023/02/21 04:17:46;;;;;;;4.22;1.30;;;;;;;;;;6148342;23;20860;-80
2023/02/21 04:20:20;;;;;;;4.68;1.20;;;;;;;;;;6149047;23;20399;-80
2023/02/21 04:22:54;;;;;;;4.03;1.30;;;;;;;;;;6124826;23;20382;-81
2023/02/21 04:25:22;;;;;;;4.50;1.30;;;;;;;;;;6124286;23;20841;-80
2023/02/21 04:28:00;;;;;;;2.20;1.20;;;;;;;;;;6161972;23;20375;-81
2023/02/21 04:30:29;;;;;;;4.15;1.25;;;;;;;;;;6125451;23;20391;-81
2023/02/21 04:33:02;;;;;;;10.38;1.33;;;;;;;;;;6124329;23;20386;-81
2023/02/21 04:35:35;;;;;;;5.53;1.23;;;;;;;;;;6124635;23;20717;-81
2023/02/21 04:38:11;;;;;;;9.10;1.40;;;;;;;;;;6124251;23;20697;-81
2023/02/21 04:40:44;;;;;;;9.52;1.60;;;;;;;;;;6123991;23;20390;-80
2023/02/21 04:43:12;;;;;;;7.55;1.40;;;;;;;;;;6124446;23;20386;-81
2023/02/21 04:45:45;;;;;;;7.70;1.40;;;;;;;;;;6160866;23;20382;-81
2023/02/21 04:48:17;;;;;;;11.20;1.40;;;;;;;;;;6148971;23;20387;-81
2023/02/21 04:50:50;;;;;;;6.93;1.40;;;;;;;;;;6125161;23;20390;-81
2023/02/21 04:53:24;;;;;;;7.53;1.65;;;;;;;;;;6151606;23;20745;-80
2023/02/21 04:55:52;;;;;;;10.05;1.60;;;;;;;;;;6148295;23;20392;-81
2023/02/21 04:58:25;;;;;;;9.88;1.63;;;;;;;;;;6149077;23;20379;-80
2023/02/21 05:00:57;;;;;;;11.98;1.67;;;;;;;;;;6124375;23;20398;-81
2023/02/21 05:03:25;;;;;;;12.23;2.05;;;;;;;;;;6151417;23;20366;-80
2023/02/21 05:05:58;;;;;;;13.60;1.98;;;;;;;;;;6124874;23;20879;-80
2023/02/21 05:08:32;;;;;;;10.48;1.65;;;;;;;;;;6161434;23;21137;-81
2023/02/21 05:11:00;;;;;;;11.98;1.85;;;;;;;;;;6124498;23;20379;-81
2023/02/21 05:13:33;;;;;;;11.18;1.63;;;;;;;;;;6160958;23;20382;-81
2023/02/21 05:16:06;;;;;;;10.13;1.77;;;;;;;;;;6160923;23;20390;-81
2023/02/21 05:18:41;;;;;;;9.68;1.60;;;;;;;;;;6163289;23;20394;-80
2023/02/21 05:21:14;;;;;;;12.82;1.73;;;;;;;;;;6163185;23;20400;-80
2023/02/21 05:23:55;;;;;;;12.65;1.60;;;;;;;;;;6150592;23;20382;-81
2023/02/21 05:26:30;;;;;;;9.18;1.50;;;;;;;;;;6162525;23;20880;-81
2023/02/21 05:29:03;;;;;;;10.82;2.00;;;;;;;;;;6126432;23;20879;-81
2023/02/21 05:31:30;;;;;;;12.88;2.42;;;;;;;;;;6152955;23;20768;-81
2023/02/21 05:33:58;;;;;;;11.82;2.10;;;;;;;;;;6153182;23;20367;-81
2023/02/21 05:36:26;;;;;;;10.38;1.58;;;;;;;;;;6152815;23;20401;-82
2023/02/21 05:38:56;;;;;;;9.60;1.55;;;;;;;;;;6110021;23;20382;-81
2023/02/21 05:41:28;;;;;;;12.20;1.63;;;;;;;;;;6146621;23;20693;-82
2023/02/21 05:43:56;;;;;;;13.80;2.00;;;;;;;;;;6124182;23;20394;-84
2023/02/21 05:46:30;;;;;;;9.88;1.67;;;;;;;;;;6161330;23;20375;-80
2023/02/21 05:48:58;;;;;;;14.13;2.03;;;;;;;;;;6125690;23;20387;-80
2023/02/21 05:51:34;;;;;;;13.57;2.03;;;;;;;;;;6156718;23;20382;-81
2023/02/21 05:54:08;;;;;;;10.43;1.80;;;;;;;;;;6163080;23;20439;-81
2023/02/21 05:56:42;;;;;;;12.30;1.83;;;;;;;;;;6162833;23;20839;-80
2023/02/21 05:59:15;;;;;;;11.07;1.77;;;;;;;;;;6162210;23;20394;-81
2023/02/21 06:01:49;;;;;;;14.15;2.17;;;;;;;;;;6124540;23;20923;-81
2023/02/21 06:04:17;;;;;;;14.73;2.20;;;;;;;;;;6125212;23;20677;-81
2023/02/21 06:06:50;;;;;;;16.48;2.28;;;;;;;;;;6149404;23;20382;-81
2023/02/21 06:09:19;;;;;;;13.88;2.08;;;;;;;;;;6151882;23;20370;-82
2023/02/21 06:11:55;;;;;;;12.88;1.98;;;;;;;;;;6150112;23;20398;-83
2023/02/21 06:14:28;;;;;;;16.83;2.20;;;;;;;;;;6161271;23;20382;-81
2023/02/21 06:17:01;;;;;;;11.90;2.17;;;;;;;;;;6124341;23;20458;-81
2023/02/21 06:19:34;;;;;;;11.73;1.90;;;;;;;;;;6125614;23;21098;-82
2023/02/21 06:22:07;;;;;;;14.00;2.28;;;;;;;;;;6161562;23;20397;-81
2023/02/21 06:24:41;;;;;;;14.63;2.00;;;;;;;;;;6124385;23;20394;-80
2023/02/21 06:27:14;;;;;;;14.43;2.17;;;;;;;;;;6146193;23;20383;-82
2023/02/21 06:29:47;;;;;;;15.52;2.08;;;;;;;;;;6125349;23;20859;-79
2023/02/21 06:32:20;;;;;;;16.05;2.15;;;;;;;;;;6162469;23;20386;-81
2023/02/21 06:34:52;;;;;;;15.55;2.20;;;;;;;;;;6161200;23;20693;-81
2023/02/21 06:37:25;;;;;;;14.95;2.13;;;;;;;;;;6124554;23;20393;-80
2023/02/21 06:39:59;;;;;;;18.80;2.40;;;;;;;;;;6125663;23;20387;-80
2023/02/21 06:42:32;;;;;;;19.02;2.65;;;;;;;;;;6125244;23;20857;-82
2023/02/21 06:45:05;;;;;;;15.52;2.20;;;;;;;;;;6161294;23;20378;-82
2023/02/21 06:47:33;;;;;;;14.48;2.30;;;;;;;;;;6152278;23;20363;-81
2023/02/21 06:50:01;;;;;;;15.90;2.60;;;;;;;;;;6153634;23;20393;-81
2023/02/21 06:52:31;;;;;;;15.77;2.50;;;;;;;;;;6150278;23;20382;-81
2023/02/21 06:55:00;;;;;;;15.87;2.23;;;;;;;;;;6150336;23;20383;-80
2023/02/21 06:57:28;;;;;;;20.52;2.22;;;;;;;;;;6151877;23;20379;-81
2023/02/21 06:59:56;;;;;;;20.35;2.67;;;;;;;;;;6125463;23;20387;-81
2023/02/21 07:02:30;;;;;;;15.65;2.45;;;;;;;;;;6150683;23;20405;-81
2023/02/21 07:05:03;;;;;;;20.15;2.47;;;;;;;;;;6162237;23;20699;-81
2023/02/21 07:07:36;;;;;;;17.08;2.35;;;;;;;;;;6161882;23;20378;-80
2023/02/21 07:10:10;;;;;;;18.35;2.55;;;;;;;;;;6150179;23;20387;-82
2023/02/21 07:12:43;;;;;;;14.90;2.20;;;;;;;;;;6124329;23;20391;-82
2023/02/21 07:15:16;;;;;;;23.67;3.17;;;;;;;;;;6150028;23;20390;-81
2023/02/21 07:17:43;;;;;;;16.48;2.17;;;;;;;;;;6124992;23;20390;-80
2023/02/21 07:20:16;;;;;;;17.90;2.53;;;;;;;;;;6125162;23;20398;-81
2023/02/21 07:22:49;;;;;;;14.20;2.30;;;;;;;;;;6161482;23;20390;-81
2023/02/21 07:25:23;;;;;;;17.10;2.55;;;;;;;;;;6161904;23;20363;-81
2023/02/21 07:27:56;;;;;;;17.70;2.50;;;;;;;;;;6152040;23;20379;-81
2023/02/21 07:30:24;;;;;;;18.30;2.90;;;;;;;;;;6125048;23;20414;-81
2023/02/21 07:32:57;;;;;;;15.90;2.03;;;;;;;;;;6161139;23;20386;-81
2023/02/21 07:35:30;;;;;;;15.15;2.22;;;;;;;;;;6161354;23;20405;-81
2023/02/21 07:37:57;;;;;;;18.08;2.72;;;;;;;;;;6149772;23;20390;-81
2023/02/21 07:40:32;;;;;;;20.17;2.53;;;;;;;;;;6161595;23;20382;-80
2023/02/21 07:43:01;;;;;;;20.60;2.85;;;;;;;;;;6125001;23;20378;-81
2023/02/21 07:45:28;;;;;;;17.02;2.10;;;;;;;;;;6151714;23;20367;-80
2023/02/21 07:48:01;;;;;;;21.20;2.75;;;;;;;;;;6149013;23;20429;-80
2023/02/21 07:50:29;;;;;;;17.38;2.92;;;;;;;;;;6125177;23;20757;-80
2023/02/21 07:52:58;;;;;;;19.95;2.38;;;;;;;;;;6161756;23;20375;-81
2023/02/21 07:55:32;;;;;;;19.77;2.83;;;;;;;;;;6161305;23;20393;-80
2023/02/21 07:58:05;;;;;;;21.98;2.72;;;;;;;;;;6124671;23;20387;-81
2023/02/21 08:00:38;;;;;;;18.20;2.83;;;;;;;;;;6161449;23;20824;-81
2023/02/21 08:03:06;;;;;;;20.02;2.63;;;;;;;;;;6151699;23;20375;-81
2023/02/21 08:05:34;;;;;;;17.25;2.50;;;;;;;;;;6125192;23;20397;-81
2023/02/21 08:08:02;;;;;;;20.27;2.60;;;;;;;;;;6125363;23;20394;-80
2023/02/21 08:10:36;;;;;;;24.92;3.25;;;;;;;;;;6150629;23;20398;-82
2023/02/21 08:13:04;;;;;;;23.42;5.70;;;;;;;;;;6151855;23;20366;-81
2023/02/21 08:15:32;;;;;;;23.75;2.83;;;;;;;;;;6152331;23;20378;-81
2023/02/21 08:17:59;;;;;;;22.08;2.92;;;;;;;;;;6144035;23;20374;-81
2023/02/21 08:20:27;;;;;;;20.00;2.85;;;;;;;;;;6105271;23;20387;-82
2023/02/21 08:23:00;;;;;;;17.63;2.58;;;;;;;;;;6140001;23;20375;-81
2023/02/21 08:25:33;;;;;;;16.45;2.38;;;;;;;;;;6143079;23;20382;-81
2023/02/21 08:28:02;;;;;;;21.58;2.97;;;;;;;;;;6105206;23;20416;-81
2023/02/21 08:30:35;;;;;;;21.95;3.28;;;;;;;;;;6131320;23;20386;-82
2023/02/21 08:33:03;;;;;;;19.35;2.65;;;;;;;;;;6109341;23;20444;-81
2023/02/21 08:35:35;;;;;;;21.63;3.00;;;;;;;;;;6140605;23;20406;-83
2023/02/21 08:38:03;;;;;;;26.93;2.97;;;;;;;;;;6128765;23;20456;-82
2023/02/21 08:40:36;;;;;;;20.48;3.20;;;;;;;;;;6102658;23;20398;-82
2023/02/21 08:43:11;;;;;;;20.93;2.63;;;;;;;;;;6140046;23;20873;-82
2023/02/21 08:45:43;;;;;;;20.42;3.00;;;;;;;;;;6134151;23;20394;-81
2023/02/21 08:48:16;;;;;;;21.42;3.03;;;;;;;;;;6131338;23;20370;-81
2023/02/21 08:50:50;;;;;;;19.67;2.90;;;;;;;;;;6105369;23;20397;-82
2023/02/21 08:53:18;;;;;;;24.23;3.25;;;;;;;;;;6111350;23;20386;-82
2023/02/21 08:55:51;;;;;;;16.25;2.55;;;;;;;;;;6105262;23;21180;-83
2023/02/21 08:58:25;;;;;;;17.88;2.80;;;;;;;;;;6134990;23;20383;-82
2023/02/21 09:00:53;;;;;;;20.25;2.88;;;;;;;;;;6147647;23;20363;-82
2023/02/21 09:03:26;;;;;;;20.95;2.88;;;;;;;;;;6129282;23;20379;-81
2023/02/21 09:05:59;;;;;;;18.80;3.13;;;;;;;;;;6143148;23;20387;-82
2023/02/21 09:08:32;;;;;;;19.92;2.78;;;;;;;;;;6143043;23;20638;-85
2023/02/21 09:11:05;;;;;;;23.15;2.95;;;;;;;;;;6146674;23;20370;-83
2023/02/21 09:13:34;;;;;;;34.83;7.68;;;;;;;;;;6108291;23;20390;-84
2023/02/21 09:16:03;;;;;;;17.27;3.40;;;;;;;;;;6105455;23;20390;-83
2023/02/21 09:18:31;;;;;;;20.23;2.70;;;;;;;;;;6139348;23;20390;-81
2023/02/21 09:21:05;;;;;;;21.90;3.22;;;;;;;;;;6142368;23;20904;-81
2023/02/21 09:23:38;;;;;;;22.42;2.88;;;;;;;;;;6143808;23;20389;-82
2023/02/21 09:26:06;;;;;;;25.63;3.97;;;;;;;;;;6107663;23;20402;-82
2023/02/21 09:28:42;;;;;;;16.80;3.88;;;;;;;;;;6115698;23;20399;-82
2023/02/21 09:31:10;;;;;;;29.95;8.90;;;;;;;;;;6145426;23;20363;-83
2023/02/21 09:33:43;;;;;;;36.08;12.38;;;;;;;;;;6140718;23;21084;-81
2023/02/21 09:36:22;;;;;;;26.98;7.70;;;;;;;;;;6132293;23;20884;-83
2023/02/21 09:38:55;;;;;;;29.27;7.15;;;;;;;;;;6146049;23;20974;-82
2023/02/21 09:41:28;;;;;;;22.27;4.85;;;;;;;;;;6109961;23;20400;-83
2023/02/21 09:44:02;;;;;;;24.08;3.80;;;;;;;;;;6135430;23;20398;-81
2023/02/21 09:46:37;;;;;;;21.65;3.72;;;;;;;;;;6136637;23;20402;-85
2023/02/21 09:49:13;;;;;;;24.63;4.00;;;;;;;;;;6111734;23;20375;-81
2023/02/21 09:51:47;;;;;;;19.88;3.17;;;;;;;;;;6133383;23;20406;-80
2023/02/21 09:54:24;;;;;;;22.30;3.60;;;;;;;;;;6146470;23;20382;-81
2023/02/21 09:56:51;;;;;;;21.23;3.57;;;;;;;;;;6145100;23;20363;-81
2023/02/21 09:59:26;;;;;;;17.97;2.87;;;;;;;;;;6113196;23;20891;-82
2023/02/21 10:02:16;;;;;;;16.73;2.80;;;;;;;;;;6137068;23;20398;-82
2023/02/21 10:04:57;;;;;;;18.17;2.72;;;;;;;;;;6110885;23;20402;-81
2023/02/21 10:07:35;;;;;;;20.70;3.10;;;;;;;;;;6145713;23;20391;-82
2023/02/21 10:10:06;;;;;;;20.10;2.67;;;;;;;;;;6109478;23;20379;-83
2023/02/21 10:12:37;;;;;;;22.80;2.80;;;;;;;;;;6139154;23;20390;-82
2023/02/21 10:15:23;;;;;;;18.60;2.40;;;;;;;;;;6114352;23;20397;-84
2023/02/21 10:17:58;;;;;;;19.13;2.83;;;;;;;;;;6073912;23;20383;-82
2023/02/21 10:20:34;;;;;;;20.85;3.00;;;;;;;;;;6134891;23;20387;-82
2023/02/21 10:23:11;;;;;;;20.43;2.70;;;;;;;;;;6112119;23;20410;-83
2023/02/21 10:25:45;;;;;;;16.55;2.85;;;;;;;;;;6104952;23;20736;-81
2023/02/21 10:28:19;;;;;;;14.90;2.40;;;;;;;;;;6139709;23;20447;-82
2023/02/21 10:30:57;;;;;;;16.35;3.05;;;;;;;;;;6143940;23;21196;-81
2023/02/21 10:33:37;;;;;;;18.77;2.90;;;;;;;;;;6142366;23;20375;-82
2023/02/21 10:36:10;;;;;;;19.63;3.25;;;;;;;;;;6141439;23;20370;-83
2023/02/21 10:38:46;;;;;;;19.70;2.88;;;;;;;;;;6132546;23;20891;-82
2023/02/21 10:41:15;;;;;;;19.77;3.30;;;;;;;;;;6111180;23;20402;-82
2023/02/21 10:43:49;;;;;;;18.67;2.92;;;;;;;;;;6139448;23;20382;-82
2023/02/21 10:46:27;;;;;;;15.27;2.33;;;;;;;;;;6105103;23;20394;-82
2023/02/21 10:48:58;;;;;;;14.90;2.80;;;;;;;;;;6140918;23;20366;-81
2023/02/21 10:51:31;;;;;;;18.67;3.05;;;;;;;;;;6136302;23;20371;-82
2023/02/21 10:54:13;;;;;;;16.53;2.50;;;;;;;;;;6101141;23;20437;-82
2023/02/21 10:56:41;;;;;;;14.38;2.47;;;;;;;;;;6128285;23;20976;-82
2023/02/21 10:59:21;;;;;;;16.75;2.90;;;;;;;;;;6142259;23;20383;-84
2023/02/21 11:01:56;;;;;;;17.13;3.03;;;;;;;;;;6139216;23;20378;-82
2023/02/21 11:04:30;;;;;;;17.48;2.33;;;;;;;;;;6142992;23;20375;-82
2023/02/21 11:07:06;;;;;;;19.17;2.80;;;;;;;;;;6110329;23;20391;-81
2023/02/21 11:09:40;;;;;;;16.23;2.63;;;;;;;;;;6135239;23;20704;-82
2023/02/21 11:12:22;;;;;;;21.65;2.90;;;;;;;;;;6130893;23;20367;-81
2023/02/21 11:15:14;;;;;;;19.70;3.08;;;;;;;;;;6140194;23;20832;-82
2023/02/21 11:18:01;;;;;;;17.33;3.00;;;;;;;;;;6064596;23;20402;-83
2023/02/21 11:20:29;;;;;;;16.23;2.40;;;;;;;;;;6104450;23;20397;-84
2023/02/21 11:22:57;;;;;;;19.65;3.13;;;;;;;;;;6134948;23;20382;-83
2023/02/21 11:25:25;;;;;;;16.83;3.42;;;;;;;;;;6106166;23;20386;-81
2023/02/21 11:28:03;;;;;;;16.58;2.58;;;;;;;;;;6103426;23;20717;-81
2023/02/21 11:30:32;;;;;;;16.20;2.45;;;;;;;;;;6101423;23;20383;-81
2023/02/21 11:33:03;;;;;;;14.57;2.40;;;;;;;;;;6129224;23;20674;-83
2023/02/21 11:35:38;;;;;;;15.68;2.30;;;;;;;;;;6140463;23;20383;-83
2023/02/21 11:38:08;;;;;;;20.90;2.60;;;;;;;;;;6107945;23;20787;-81
2023/02/21 11:40:41;;;;;;;16.40;2.42;;;;;;;;;;6108747;23;21304;-82
2023/02/21 11:43:19;;;;;;;16.25;2.22;;;;;;;;;;6136941;23;20394;-83
2023/02/21 11:45:51;;;;;;;20.10;2.60;;;;;;;;;;6139904;23;20367;-81
2023/02/21 11:48:29;;;;;;;17.05;2.85;;;;;;;;;;6108189;23;20398;-83
2023/02/21 11:50:57;;;;;;;14.70;2.40;;;;;;;;;;6105769;23;20387;-85
2023/02/21 11:53:32;;;;;;;19.58;2.10;;;;;;;;;;6133364;23;20409;-82
2023/02/21 11:56:08;;;;;;;15.00;2.25;;;;;;;;;;6146999;23;20374;-83
2023/02/21 11:58:43;;;;;;;20.15;2.58;;;;;;;;;;6106036;23;20394;-82
2023/02/21 12:01:19;;;;;;;17.80;2.47;;;;;;;;;;6131040;23;20390;-82
2023/02/21 12:04:03;;;;;;;18.60;2.42;;;;;;;;;;6116966;23;20834;-83
2023/02/21 12:06:41;;;;;;;16.13;2.40;;;;;;;;;;6104130;23;20387;-82
2023/02/21 12:09:18;;;;;;;14.38;2.17;;;;;;;;;;6108614;23;20387;-83
2023/02/21 12:11:53;;;;;;;15.63;2.50;;;;;;;;;;6104884;23;20396;-82
2023/02/21 12:14:39;;;;;;;16.73;2.73;;;;;;;;;;6143917;23;20390;-82
2023/02/21 12:17:17;;;;;;;15.73;2.40;;;;;;;;;;6129972;23;20406;-82
2023/02/21 12:20:07;;;;;;;14.93;2.35;;;;;;;;;;6092889;23;20812;-81
2023/02/21 12:22:47;;;;;;;15.68;2.10;;;;;;;;;;6142153;23;20712;-81
2023/02/21 12:25:22;;;;;;;12.98;2.17;;;;;;;;;;6130366;23;20390;-82
2023/02/21 12:27:56;;;;;;;17.13;2.22;;;;;;;;;;6103181;23;21313;-83
2023/02/21 12:30:29;;;;;;;13.07;2.20;;;;;;;;;;6107584;23;20440;-83
2023/02/21 12:33:07;;;;;;;12.93;2.10;;;;;;;;;;6133335;23;20413;-82
2023/02/21 12:36:01;;;;;;;17.70;2.40;;;;;;;;;;6149139;23;20378;-81
2023/02/21 12:38:38;;;;;;;14.35;2.67;;;;;;;;;;6134068;23;20383;-81
2023/02/21 12:41:17;;;;;;;16.98;2.30;;;;;;;;;;6104286;23;20397;-83
2023/02/21 12:43:55;;;;;;;16.57;2.10;;;;;;;;;;6140706;23;21440;-82
2023/02/21 12:46:31;;;;;;;14.15;2.40;;;;;;;;;;6144240;23;20383;-84
2023/02/21 12:49:06;;;;;;;16.60;2.40;;;;;;;;;;6103816;23;20390;-82
2023/02/21 12:51:37;;;;;;;16.35;2.28;;;;;;;;;;6085547;23;20394;-81
2023/02/21 12:54:09;;;;;;;13.77;2.70;;;;;;;;;;6136307;23;20372;-83
2023/02/21 12:56:46;;;;;;;10.57;1.83;;;;;;;;;;6142592;23;20387;-83
2023/02/21 12:59:18;;;;;;;12.40;2.38;;;;;;;;;;6107882;23;20391;-83
2023/02/21 13:01:56;;;;;;;11.35;2.03;;;;;;;;;;6133938;23;20418;-83
2023/02/21 13:04:33;;;;;;;11.90;1.90;;;;;;;;;;6132302;23;20395;-81
2023/02/21 13:07:05;;;;;;;13.82;2.17;;;;;;;;;;6144158;23;20373;-83
2023/02/21 13:09:41;;;;;;;11.40;1.80;;;;;;;;;;6109559;23;20477;-82
2023/02/21 13:12:16;;;;;;;10.30;1.90;;;;;;;;;;6131153;23;20382;-84
2023/02/21 13:14:47;;;;;;;11.20;2.00;;;;;;;;;;6110184;23;20390;-82
2023/02/21 13:17:20;;;;;;;11.98;1.80;;;;;;;;;;6109193;23;20423;-81
2023/02/21 13:19:54;;;;;;;15.30;2.10;;;;;;;;;;6071745;23;20395;-81
2023/02/21 13:26:03;;;;;;;11.82;1.98;;;;;;;;;;6144236;23;20378;-81
2023/02/21 13:28:35;;;;;;;14.43;2.10;;;;;;;;;;6110641;23;20729;-82
2023/02/21 13:31:18;;;;;;;9.68;2.03;;;;;;;;;;6136714;23;20387;-82
2023/02/21 13:33:49;;;;;;;9.52;2.00;;;;;;;;;;6103076;23;20382;-83
2023/02/21 13:36:24;;;;;;;11.90;1.83;;;;;;;;;;6141531;23;20384;-80
2023/02/21 13:38:59;;;;;;;9.77;2.20;;;;;;;;;;6129463;23;20386;-83
2023/02/21 13:41:35;;;;;;;14.68;2.13;;;;;;;;;;6105135;23;20733;-83
2023/02/21 13:44:09;;;;;;;7.85;1.75;;;;;;;;;;6142527;23;20377;-81
2023/02/21 13:47:03;;;;;;;10.77;1.70;;;;;;;;;;6144024;23;21261;-82
2023/02/21 13:49:36;;;;;;;14.18;2.10;;;;;;;;;;6109757;23;21036;-83
2023/02/21 13:52:34;;;;;;;11.07;1.93;;;;;;;;;;6134900;23;20375;-84
2023/02/21 13:55:26;;;;;;;11.00;2.03;;;;;;;;;;6133126;23;21217;-82
2023/02/21 13:58:18;;;;;;;14.70;2.33;;;;;;;;;;6141229;23;20383;-82
2023/02/21 14:00:49;;;;;;;9.73;2.03;;;;;;;;;;6104633;23;21363;-82
2023/02/21 14:03:30;;;;;;;13.43;3.30;;;;;;;;;;6108732;23;20398;-82
2023/02/21 14:06:23;;;;;;;16.23;5.25;;;;;;;;;;6107548;23;20398;-81
2023/02/21 14:09:00;;;;;;;14.90;3.53;;;;;;;;;;6135936;23;20395;-81
2023/02/21 14:11:35;;;;;;;12.52;2.30;;;;;;;;;;6143068;23;20379;-82
2023/02/21 14:14:04;;;;;;;13.63;2.22;;;;;;;;;;6111713;23;20389;-81
2023/02/21 14:16:46;;;;;;;14.63;2.50;;;;;;;;;;6109936;23;20406;-82
2023/02/21 14:19:19;;;;;;;10.23;2.10;;;;;;;;;;6080674;23;20395;-83
2023/02/21 14:21:48;;;;;;;8.48;2.38;;;;;;;;;;6140798;23;20371;-83
2023/02/21 14:24:22;;;;;;;12.63;2.55;;;;;;;;;;6132699;23;20429;-90
2023/02/21 14:26:56;;;;;;;11.27;1.98;;;;;;;;;;6146666;23;20383;-83
2023/02/21 14:29:34;;;;;;;12.45;2.38;;;;;;;;;;6150975;23;20382;-82
2023/02/21 14:32:23;;;;;;;11.35;2.25;;;;;;;;;;6107218;23;20397;-82
2023/02/21 14:34:56;;;;;;;10.88;1.90;;;;;;;;;;6134049;23;20382;-81
2023/02/21 14:37:33;;;;;;;10.32;2.10;;;;;;;;;;6138432;23;20389;-81
2023/02/21 14:40:04;;;;;;;12.13;2.25;;;;;;;;;;6131834;23;20386;-82
2023/02/21 14:42:39;;;;;;;12.80;1.98;;;;;;;;;;6145171;23;20421;-82
2023/02/21 14:45:19;;;;;;;12.38;1.83;;;;;;;;;;6106461;23;20390;-82
2023/02/21 14:48:10;;;;;;;12.07;1.93;;;;;;;;;;6145191;23;20398;-81
2023/02/21 14:50:49;;;;;;;9.32;1.70;;;;;;;;;;6140272;23;20828;-81
2023/02/21 14:53:32;;;;;;;11.05;1.90;;;;;;;;;;6105123;23;20387;-82
2023/02/21 14:56:23;;;;;;;10.13;1.52;;;;;;;;;;6143901;23;20383;-82
2023/02/21 14:59:17;;;;;;;11.20;1.80;;;;;;;;;;6127696;23;20387;-81
2023/02/21 15:01:54;;;;;;;11.35;2.20;;;;;;;;;;6105534;23;21049;-81
2023/02/21 15:04:33;;;;;;;13.40;2.42;;;;;;;;;;6109813;23;20387;-82
2023/02/21 15:07:12;;;;;;;11.35;2.15;;;;;;;;;;6108311;23;21232;-81
2023/02/21 15:09:45;;;;;;;12.93;2.00;;;;;;;;;;6142485;23;20712;-81
2023/02/21 15:12:18;;;;;;;13.88;2.00;;;;;;;;;;6139250;23;20871;-82
2023/02/21 15:14:50;;;;;;;13.30;2.25;;;;;;;;;;6132533;23;20378;-81
2023/02/21 15:17:24;;;;;;;11.10;2.20;;;;;;;;;;6143293;23;20381;-83
2023/02/21 15:20:05;;;;;;;14.43;2.50;;;;;;;;;;6093605;23;20418;-81
2023/02/21 15:22:39;;;;;;;14.90;2.20;;;;;;;;;;6125902;23;20391;-81
2023/02/21 15:25:20;;;;;;;14.60;2.03;;;;;;;;;;6139478;23;20374;-82
2023/02/21 15:27:54;;;;;;;12.13;2.28;;;;;;;;;;6139357;23;20386;-82
2023/02/21 15:30:23;;;;;;;9.35;1.83;;;;;;;;;;6132231;23;20378;-81
2023/02/21 15:33:02;;;;;;;12.15;1.67;;;;;;;;;;6141410;23;20862;-82
2023/02/21 15:35:36;;;;;;;14.02;2.42;;;;;;;;;;6139285;23;20390;-82
2023/02/21 15:38:14;;;;;;;8.55;2.28;;;;;;;;;;6141113;23;20437;-82
2023/02/21 15:40:42;;;;;;;10.18;2.08;;;;;;;;;;6143457;23;20371;-83
2023/02/21 15:43:14;;;;;;;10.30;2.10;;;;;;;;;;6129195;23;20389;-81
2023/02/21 15:45:44;;;;;;;11.00;1.98;;;;;;;;;;6144837;23;20366;-82
2023/02/21 15:48:17;;;;;;;11.13;2.33;;;;;;;;;;6132288;23;21134;-82
2023/02/21 15:50:46;;;;;;;14.45;2.38;;;;;;;;;;6131367;23;20375;-82
2023/02/21 15:53:17;;;;;;;12.43;2.38;;;;;;;;;;6107854;23;20390;-81
2023/02/21 15:55:45;;;;;;;11.35;2.33;;;;;;;;;;6101558;23;20386;-82
2023/02/21 15:58:19;;;;;;;14.50;2.28;;;;;;;;;;6128881;23;20398;-81
2023/02/21 16:01:05;;;;;;;12.75;2.08;;;;;;;;;;6108693;23;20392;-82
2023/02/21 16:03:35;;;;;;;12.43;2.35;;;;;;;;;;6128723;23;20418;-82
2023/02/21 16:06:14;;;;;;;11.07;2.15;;;;;;;;;;6099597;23;20382;-80
2023/02/21 16:08:52;;;;;;;12.75;2.42;;;;;;;;;;6101543;23;20390;-82
2023/02/21 16:11:26;;;;;;;11.00;2.10;;;;;;;;;;6142233;23;20387;-82
2023/02/21 16:13:59;;;;;;;10.90;2.15;;;;;;;;;;6144222;23;20375;-81
2023/02/21 16:16:32;;;;;;;9.90;2.28;;;;;;;;;;6139316;23;20390;-82
2023/02/21 16:19:05;;;;;;;11.02;2.20;;;;;;;;;;6098888;23;20398;-83
2023/02/21 16:21:34;;;;;;;12.18;2.40;;;;;;;;;;6107469;23;20393;-81
2023/02/21 16:24:27;;;;;;;11.65;2.10;;;;;;;;;;6140599;23;20397;-82
2023/02/21 16:27:05;;;;;;;13.00;2.00;;;;;;;;;;6108154;23;20387;-82
2023/02/21 16:29:32;;;;;;;12.60;2.08;;;;;;;;;;6138230;23;20363;-81
2023/02/21 16:32:05;;;;;;;11.38;2.10;;;;;;;;;;6136738;23;20378;-81
2023/02/21 16:34:38;;;;;;;10.20;1.90;;;;;;;;;;6099830;23;21335;-82
2023/02/21 16:37:12;;;;;;;9.52;1.83;;;;;;;;;;6124778;23;20387;-82
2023/02/21 16:39:47;;;;;;;14.85;2.38;;;;;;;;;;6101016;23;20401;-81
2023/02/21 16:42:15;;;;;;;12.52;2.28;;;;;;;;;;6130420;23;20382;-81
2023/02/21 16:44:48;;;;;;;16.10;2.40;;;;;;;;;;6105460;23;20480;-84
2023/02/21 16:47:21;;;;;;;12.60;2.20;;;;;;;;;;6109168;23;20379;-81
2023/02/21 16:49:54;;;;;;;12.63;2.70;;;;;;;;;;6131768;23;20395;-81
2023/02/21 16:52:27;;;;;;;11.50;2.42;;;;;;;;;;6125100;23;20378;-82
2023/02/21 16:55:01;;;;;;;14.75;2.63;;;;;;;;;;6104230;23;20884;-83
2023/02/21 16:57:34;;;;;;;14.43;3.63;;;;;;;;;;6140965;23;20383;-83
2023/02/21 17:00:08;;;;;;;12.33;2.50;;;;;;;;;;6146923;23;20437;-82
2023/02/21 17:02:40;;;;;;;15.35;2.30;;;;;;;;;;6100905;23;20394;-84
2023/02/21 17:05:08;;;;;;;12.97;2.47;;;;;;;;;;6127915;23;21264;-83
2023/02/21 17:07:36;;;;;;;13.60;2.33;;;;;;;;;;6129294;23;20378;-84
2023/02/21 17:10:11;;;;;;;11.70;2.27;;;;;;;;;;6103057;23;20382;-82
2023/02/21 17:12:44;;;;;;;12.60;2.40;;;;;;;;;;6129815;23;20394;-83
2023/02/21 17:15:17;;;;;;;13.00;2.03;;;;;;;;;;6142699;23;20855;-83
2023/02/21 17:17:50;;;;;;;10.73;2.20;;;;;;;;;;6127125;23;20987;-83
2023/02/21 17:20:23;;;;;;;13.02;2.42;;;;;;;;;;6128622;23;20391;-84
2023/02/21 17:22:57;;;;;;;11.82;2.28;;;;;;;;;;6104808;23;20391;-84
2023/02/21 17:25:33;;;;;;;12.37;2.40;;;;;;;;;;6101827;23;20387;-83
2023/02/21 17:28:01;;;;;;;13.43;2.45;;;;;;;;;;6103349;23;20382;-82
2023/02/21 17:30:34;;;;;;;11.87;2.20;;;;;;;;;;6108682;23;20391;-83
2023/02/21 17:33:08;;;;;;;9.57;2.15;;;;;;;;;;6134201;23;20406;-81
2023/02/21 17:35:36;;;;;;;14.63;2.33;;;;;;;;;;6107377;23;20386;-83